createdAt,value
2019-02-26T00:01:50.432Z,99.90
2019-02-26T00:04:21.050Z,99.60
2019-02-26T00:06:54.014Z,99.90
2019-02-26T00:11:54.903Z,99.90
2019-02-26T00:14:28.100Z,99.90
2019-02-26T00:16:58.932Z,99.90
2019-02-26T00:19:28.958Z,99.90
2019-02-26T00:21:58.983Z,99.90
2019-02-26T00:24:30.765Z,99.90
2019-02-26T00:27:01.490Z,99.90
2019-02-26T00:29:32.419Z,99.90
2019-02-26T00:32:02.377Z,99.90
2019-02-26T00:34:32.874Z,99.90
2019-02-26T00:39:35.158Z,99.90
2019-02-26T00:42:06.909Z,99.90
2019-02-26T00:47:09.012Z,99.90
2019-02-26T00:49:41.970Z,99.90
2019-02-26T00:52:13.360Z,99.90
2019-02-26T00:54:43.801Z,99.90
2019-02-26T00:57:14.051Z,99.90
2019-02-26T00:59:46.278Z,99.90
2019-02-26T01:02:16.813Z,98.90
2019-02-26T01:04:49.246Z,99.90
2019-02-26T01:07:21.340Z,98.80
2019-02-26T01:09:52.497Z,99.90
2019-02-26T01:12:23.609Z,98.80
2019-02-26T01:14:53.706Z,99.90
2019-02-26T01:17:23.821Z,98.70
2019-02-26T01:19:54.435Z,99.90
2019-02-26T01:22:25.644Z,99.90
2019-02-26T01:24:56.285Z,99.90
2019-02-26T01:27:27.212Z,98.40
2019-02-26T01:29:58.169Z,99.90
2019-02-26T01:34:58.389Z,98.00
2019-02-26T01:37:29.937Z,98.40
2019-02-26T01:39:59.938Z,99.90
2019-02-26T01:42:31.664Z,99.90
2019-02-26T01:45:01.555Z,99.90
2019-02-26T01:47:32.332Z,99.90
2019-02-26T01:50:04.086Z,99.90
2019-02-26T01:52:34.346Z,99.90
2019-02-26T01:55:05.024Z,99.90
2019-02-26T01:57:35.072Z,99.90
2019-02-26T02:00:16.358Z,99.90
2019-02-26T02:02:46.478Z,99.90
2019-02-26T02:05:19.082Z,99.90
2019-02-26T02:07:51.339Z,99.90
2019-02-26T02:10:21.857Z,97.90
2019-02-26T02:12:55.294Z,99.90
2019-02-26T02:15:23.899Z,97.70
2019-02-26T02:17:56.624Z,99.90
2019-02-26T02:20:25.976Z,99.90
2019-02-26T02:22:58.113Z,99.90
2019-02-26T02:25:31.084Z,97.70
2019-02-26T02:28:01.977Z,99.90
2019-02-26T02:30:35.087Z,97.70
2019-02-26T02:33:02.818Z,99.90
2019-02-26T02:38:04.641Z,99.90
2019-02-26T02:40:33.705Z,99.90
2019-02-26T02:43:04.388Z,99.90
2019-02-26T02:45:35.165Z,99.90
2019-02-26T02:48:06.228Z,99.90
2019-02-26T02:50:36.929Z,99.90
2019-02-26T02:53:06.958Z,99.90
2019-02-26T02:55:37.907Z,99.90
2019-02-26T02:58:08.406Z,99.90
2019-02-26T03:00:38.393Z,99.90
2019-02-26T03:03:08.364Z,99.90
2019-02-26T03:05:41.274Z,99.90
2019-02-26T03:08:13.942Z,99.90
2019-02-26T03:10:45.041Z,99.90
2019-02-26T03:13:16.954Z,99.90
2019-02-26T03:15:47.507Z,99.90
2019-02-26T03:18:18.479Z,99.90
2019-02-26T03:20:48.403Z,99.90
2019-02-26T03:23:19.970Z,99.90
2019-02-26T03:28:24.273Z,99.90
2019-02-26T03:30:54.299Z,99.90
2019-02-26T03:33:24.306Z,99.90
2019-02-26T03:35:54.448Z,99.90
2019-02-26T03:38:26.424Z,99.90
2019-02-26T03:40:58.902Z,98.30
2019-02-26T03:43:28.821Z,99.90
2019-02-26T03:45:59.458Z,98.40
2019-02-26T03:48:29.422Z,99.90
2019-02-26T03:51:01.331Z,98.50
2019-02-26T03:53:33.670Z,99.90
2019-02-26T03:56:04.637Z,98.40
2019-02-26T03:58:34.149Z,99.90
2019-02-26T04:01:07.230Z,99.90
2019-02-26T04:03:37.571Z,99.90
2019-02-26T04:08:42.320Z,99.90
2019-02-26T04:11:13.804Z,99.90
2019-02-26T04:13:46.009Z,99.90
2019-02-26T04:16:15.853Z,99.90
2019-02-26T04:18:45.752Z,99.90
2019-02-26T04:21:18.400Z,99.90
2019-02-26T04:26:50.713Z,99.90
2019-02-26T04:29:23.931Z,99.90
2019-02-26T04:32:05.209Z,99.90
2019-02-26T04:34:38.106Z,99.90
2019-02-26T04:37:13.669Z,99.90
2019-02-26T04:39:47.591Z,99.90
2019-02-26T04:42:20.735Z,99.90
2019-02-26T04:45:26.614Z,99.90
2019-02-26T04:48:02.759Z,99.90
2019-02-26T04:50:35.733Z,99.90
2019-02-26T04:53:05.809Z,99.90
2019-02-26T04:55:38.241Z,99.90
2019-02-26T04:58:08.757Z,99.90
2019-02-26T05:00:39.004Z,99.90
2019-02-26T05:03:13.612Z,99.90
2019-02-26T05:05:42.281Z,99.90
2019-02-26T05:08:12.880Z,99.90
2019-02-26T05:10:43.753Z,99.90
2019-02-26T05:15:43.620Z,99.90
2019-02-26T05:18:14.020Z,99.90
2019-02-26T05:20:48.110Z,99.90
2019-02-26T05:23:15.520Z,99.90
2019-02-26T05:25:45.594Z,99.90
2019-02-26T05:28:17.642Z,99.90
2019-02-26T05:30:49.569Z,99.90
2019-02-26T05:33:21.644Z,99.90
2019-02-26T05:35:51.609Z,99.90
2019-02-26T05:38:24.090Z,99.90
2019-02-26T05:40:55.822Z,99.90
2019-02-26T05:43:28.174Z,99.90
2019-02-26T05:46:00.580Z,99.90
2019-02-26T05:48:30.572Z,99.90
2019-02-26T05:51:02.962Z,99.90
2019-02-26T05:53:32.159Z,99.90
2019-02-26T05:56:02.273Z,99.90
2019-02-26T05:58:33.623Z,99.90
2019-02-26T06:01:04.094Z,99.90
2019-02-26T06:03:34.181Z,99.90
2019-02-26T06:06:04.609Z,99.90
2019-02-26T06:08:36.459Z,99.90
2019-02-26T06:11:07.378Z,99.90
2019-02-26T06:16:08.605Z,99.90
2019-02-26T06:18:41.191Z,99.90
2019-02-26T06:21:10.195Z,99.90
2019-02-26T06:23:40.080Z,99.90
2019-02-26T06:26:14.165Z,99.90
2019-02-26T06:28:43.491Z,99.90
2019-02-26T06:31:14.650Z,99.90
2019-02-26T06:33:47.195Z,99.90
2019-02-26T06:38:49.615Z,99.90
2019-02-26T06:41:19.660Z,99.90
2019-02-26T06:43:50.394Z,99.90
2019-02-26T06:46:21.207Z,99.90
2019-02-26T06:48:51.223Z,99.90
2019-02-26T06:51:23.316Z,99.90
2019-02-26T06:53:54.259Z,99.90
2019-02-26T06:56:26.696Z,99.90
2019-02-26T06:58:56.818Z,99.90
2019-02-26T07:01:26.926Z,99.90
2019-02-26T07:03:57.964Z,99.90
2019-02-26T07:06:30.271Z,99.90
2019-02-26T07:09:00.682Z,99.90
2019-02-26T07:14:05.450Z,99.90
2019-02-26T07:16:34.909Z,99.90
2019-02-26T07:19:06.526Z,99.90
2019-02-26T07:21:38.031Z,99.90
2019-02-26T07:24:08.662Z,99.90
2019-02-26T07:26:40.718Z,99.90
2019-02-26T07:29:12.619Z,99.90
2019-02-26T07:31:41.974Z,99.90
2019-02-26T07:34:12.021Z,99.90
2019-02-26T07:39:15.330Z,99.90
2019-02-26T07:41:46.939Z,99.90
2019-02-26T07:44:18.656Z,99.90
2019-02-26T07:46:47.997Z,99.90
2019-02-26T07:49:19.908Z,99.90
2019-02-26T07:51:49.769Z,99.60
2019-02-26T07:54:19.685Z,99.90
2019-02-26T07:56:50.265Z,99.20
2019-02-26T08:06:52.338Z,97.80
2019-02-26T08:09:23.628Z,99.90
2019-02-26T08:11:53.775Z,99.90
2019-02-26T08:14:25.626Z,99.90
2019-02-26T08:16:59.440Z,99.90
2019-02-26T08:21:59.777Z,99.90
2019-02-26T08:29:31.088Z,99.90
2019-02-26T08:37:00.717Z,99.90
2019-02-26T08:39:31.647Z,99.90
2019-02-26T08:42:06.604Z,97.90
2019-02-26T08:44:39.045Z,98.40
2019-02-26T08:47:11.413Z,99.90
2019-02-26T08:49:42.601Z,99.90
2019-02-26T08:52:11.964Z,99.90
2019-02-26T08:54:42.801Z,99.90
2019-02-26T08:57:12.707Z,99.90
2019-02-26T09:02:15.321Z,99.90
2019-02-26T09:04:47.846Z,99.90
2019-02-26T09:07:18.935Z,92.30
2019-02-26T09:09:50.117Z,99.90
2019-02-26T09:12:22.337Z,99.90
2019-02-26T09:14:52.965Z,99.90
2019-02-26T09:17:26.794Z,99.90
2019-02-26T09:22:28.375Z,99.90
2019-02-26T09:24:59.875Z,99.90
2019-02-26T09:27:31.943Z,99.90
2019-02-26T09:30:03.269Z,99.90
2019-02-26T09:32:34.857Z,99.90
2019-02-26T09:35:07.217Z,99.60
2019-02-26T09:37:37.130Z,99.90
2019-02-26T09:42:38.486Z,99.10
2019-02-26T09:45:11.542Z,98.90
2019-02-26T09:47:41.594Z,98.80
2019-02-26T09:50:15.159Z,98.30
2019-02-26T09:52:47.254Z,98.00
2019-02-26T09:55:17.492Z,98.50
2019-02-26T09:57:47.592Z,87.60
2019-02-26T10:00:24.765Z,97.90
2019-02-26T10:02:52.854Z,86.50
2019-02-26T10:05:22.843Z,98.00
2019-02-26T10:07:54.959Z,86.30
2019-02-26T10:10:27.544Z,86.40
2019-02-26T10:12:59.215Z,98.00
2019-02-26T10:15:27.840Z,97.50
2019-02-26T10:18:00.846Z,85.50
2019-02-26T10:20:31.711Z,93.10
2019-02-26T10:23:03.561Z,97.20
2019-02-26T10:25:34.948Z,97.00
2019-02-26T10:28:08.803Z,95.90
2019-02-26T10:30:38.477Z,95.80
2019-02-26T10:33:08.129Z,96.00
2019-02-26T10:35:39.631Z,95.70
2019-02-26T10:38:11.448Z,95.10
2019-02-26T10:40:53.497Z,95.30
2019-02-26T10:43:12.746Z,95.00
2019-02-26T10:45:44.734Z,94.50
2019-02-26T10:48:16.801Z,94.20
2019-02-26T10:50:49.192Z,94.00
2019-02-26T10:53:20.404Z,93.40
2019-02-26T10:55:50.582Z,93.50
2019-02-26T10:58:20.575Z,93.10
2019-02-26T11:00:54.808Z,93.40
2019-02-26T11:03:23.755Z,92.70
2019-02-26T11:05:53.668Z,92.80
2019-02-26T11:10:55.131Z,81.10
2019-02-26T11:13:25.890Z,93.50
2019-02-26T11:15:57.396Z,75.80
2019-02-26T11:18:27.511Z,76.60
2019-02-26T11:20:59.293Z,94.20
2019-02-26T11:23:31.111Z,78.90
2019-02-26T11:26:00.528Z,94.30
2019-02-26T11:28:32.930Z,78.80
2019-02-26T11:31:03.130Z,94.00
2019-02-26T11:33:33.135Z,78.30
2019-02-26T11:36:05.289Z,94.30
2019-02-26T11:38:36.665Z,93.80
2019-02-26T11:41:06.250Z,93.50
2019-02-26T11:43:36.175Z,93.70
2019-02-26T11:46:06.785Z,93.00
2019-02-26T11:48:37.937Z,92.80
2019-02-26T11:51:07.788Z,93.00
2019-02-26T11:53:37.751Z,93.40
2019-02-26T11:56:07.756Z,93.00
2019-02-26T11:58:37.909Z,92.70
2019-02-26T12:01:09.039Z,92.60
2019-02-26T12:03:41.165Z,92.80
2019-02-26T12:06:10.608Z,92.70
2019-02-26T12:08:42.436Z,92.30
2019-02-26T12:11:15.184Z,92.60
2019-02-26T12:13:44.720Z,92.50
2019-02-26T12:16:15.701Z,92.30
2019-02-26T12:18:46.979Z,92.10
2019-02-26T12:21:18.583Z,92.20
2019-02-26T12:23:48.594Z,91.70
2019-02-26T12:26:19.189Z,91.30
2019-02-26T12:28:51.683Z,91.20
2019-02-26T12:31:21.800Z,90.80
2019-02-26T12:33:51.940Z,90.40
2019-02-26T12:36:23.599Z,90.80
2019-02-26T12:38:56.396Z,91.10
2019-02-26T12:41:25.058Z,91.10
2019-02-26T12:43:54.954Z,90.90
2019-02-26T12:46:27.331Z,90.30
2019-02-26T12:48:56.518Z,90.20
2019-02-26T12:51:29.523Z,90.40
2019-02-26T12:53:58.109Z,90.40
2019-02-26T12:56:29.935Z,90.30
2019-02-26T12:58:59.659Z,70.00
2019-02-26T13:01:33.190Z,90.60
2019-02-26T13:04:01.239Z,70.20
2019-02-26T13:06:31.140Z,90.20
2019-02-26T13:09:02.691Z,90.20
2019-02-26T13:11:34.046Z,90.00
2019-02-26T13:16:37.256Z,88.90
2019-02-26T13:19:07.478Z,88.50
2019-02-26T13:21:42.884Z,88.50
2019-02-26T13:24:17.079Z,88.20
2019-02-26T13:26:47.229Z,87.90
2019-02-26T13:29:15.220Z,88.50
2019-02-26T13:31:56.052Z,87.70
2019-02-26T13:34:16.781Z,88.30
2019-02-26T13:36:49.008Z,86.80
2019-02-26T13:39:25.487Z,87.40
2019-02-26T13:41:54.393Z,87.00
2019-02-26T13:44:21.664Z,87.90
2019-02-26T13:46:51.561Z,87.70
2019-02-26T13:49:21.471Z,87.30
2019-02-26T13:51:51.483Z,87.70
2019-02-26T13:54:21.407Z,87.30
2019-02-26T13:59:20.983Z,86.90
2019-02-26T14:01:52.173Z,87.30
2019-02-26T14:04:22.544Z,87.30
2019-02-26T14:06:52.508Z,88.30
2019-02-26T14:09:22.448Z,88.10
2019-02-26T14:11:52.552Z,87.10
2019-02-26T14:14:22.554Z,87.70
2019-02-26T14:16:52.478Z,87.10
2019-02-26T14:19:22.434Z,87.70
2019-02-26T14:21:54.251Z,87.70
2019-02-26T14:24:24.498Z,87.60
2019-02-26T14:26:56.556Z,87.70
2019-02-26T14:29:29.744Z,87.60
2019-02-26T14:31:59.956Z,87.50
2019-02-26T14:34:29.966Z,87.80
2019-02-26T14:37:00.266Z,88.10
2019-02-26T14:39:30.305Z,88.30
2019-02-26T14:44:30.022Z,89.10
2019-02-26T14:47:00.053Z,88.80
2019-02-26T14:49:29.921Z,88.50
2019-02-26T14:52:00.063Z,88.40
2019-02-26T14:54:30.116Z,89.20
2019-02-26T14:57:00.089Z,89.00
2019-02-26T14:59:30.327Z,89.10
2019-02-26T15:02:01.440Z,88.60
2019-02-26T15:04:31.376Z,89.40
2019-02-26T15:07:01.687Z,89.80
2019-02-26T15:12:01.589Z,90.10
2019-02-26T15:14:33.216Z,89.50
2019-02-26T15:17:03.311Z,89.60
2019-02-26T15:19:33.152Z,90.00
2019-02-26T15:22:03.118Z,90.40
2019-02-26T15:24:33.144Z,90.00
2019-02-26T15:27:03.249Z,90.50
2019-02-26T15:29:33.147Z,90.30
2019-02-26T15:32:03.295Z,90.60
2019-02-26T15:34:33.272Z,90.80
2019-02-26T15:37:04.382Z,90.80
2019-02-26T15:39:34.480Z,91.10
2019-02-26T15:42:04.583Z,78.50
2019-02-26T15:44:34.502Z,91.30
2019-02-26T15:47:04.505Z,91.40
2019-02-26T15:49:35.780Z,91.80
2019-02-26T15:52:07.821Z,90.30
2019-02-26T15:54:37.999Z,92.00
2019-02-26T15:57:08.038Z,92.20
2019-02-26T15:59:37.944Z,92.20
2019-02-26T16:02:08.005Z,92.90
2019-02-26T16:04:38.402Z,92.60
2019-02-26T16:07:08.632Z,92.80
2019-02-26T16:09:38.986Z,93.00
2019-02-26T16:12:08.959Z,93.00
2019-02-26T16:14:38.982Z,93.00
2019-02-26T16:17:09.294Z,93.80
2019-02-26T16:19:39.184Z,93.40
2019-02-26T16:22:09.104Z,93.80
2019-02-26T16:27:08.817Z,94.20
2019-02-26T16:29:38.951Z,94.00
2019-02-26T16:32:09.182Z,94.50
2019-02-26T16:34:39.443Z,94.00
2019-02-26T16:37:09.525Z,94.10
2019-02-26T16:39:40.498Z,94.30
2019-02-26T16:42:11.781Z,94.30
2019-02-26T16:44:42.440Z,94.30
2019-02-26T16:47:12.603Z,94.40
2019-02-26T16:49:44.218Z,94.40
2019-02-26T16:52:14.114Z,94.50
2019-02-26T16:54:44.135Z,94.70
2019-02-26T16:57:14.304Z,94.60
2019-02-26T16:59:44.375Z,94.80
2019-02-26T17:02:14.825Z,94.70
2019-02-26T17:04:45.025Z,95.00
2019-02-26T17:07:15.064Z,95.10
2019-02-26T17:09:45.263Z,95.40
2019-02-26T17:12:15.331Z,79.60
2019-02-26T17:14:45.777Z,95.60
2019-02-26T17:17:15.699Z,79.60
2019-02-26T17:19:48.314Z,95.60
2019-02-26T17:22:17.372Z,95.60
2019-02-26T17:24:47.596Z,95.80
2019-02-26T17:27:17.626Z,96.20
2019-02-26T17:29:49.410Z,96.00
2019-02-26T17:34:49.735Z,96.20
2019-02-26T17:37:20.135Z,96.30
2019-02-26T17:42:19.655Z,96.40
2019-02-26T17:44:49.775Z,96.70
2019-02-26T17:49:49.575Z,96.50
2019-02-26T17:52:19.730Z,96.80
2019-02-26T17:54:50.136Z,97.10
2019-02-26T17:59:50.065Z,97.10
2019-02-26T18:02:20.085Z,97.30
2019-02-26T18:04:50.127Z,97.30
2019-02-26T18:09:50.638Z,97.50
2019-02-26T18:12:20.860Z,97.70
2019-02-26T18:14:50.995Z,93.60
2019-02-26T18:17:21.099Z,91.90
2019-02-26T18:19:51.029Z,98.50
2019-02-26T18:22:21.828Z,98.60
2019-02-26T18:24:52.580Z,98.60
2019-02-26T18:27:22.609Z,98.50
2019-02-26T18:29:52.868Z,98.80
2019-02-26T18:32:22.838Z,86.30
2019-02-26T18:34:52.953Z,98.70
2019-02-26T18:37:23.791Z,94.20
2019-02-26T18:39:54.750Z,98.80
2019-02-26T18:42:25.411Z,99.30
2019-02-26T18:44:55.336Z,99.30
2019-02-26T18:47:25.450Z,99.40
2019-02-26T18:49:56.086Z,99.90
2019-02-26T18:52:26.366Z,88.60
2019-02-26T18:54:56.423Z,99.80
2019-02-26T18:57:26.376Z,99.90
2019-02-26T18:59:56.551Z,99.90
2019-02-26T19:02:26.799Z,99.90
2019-02-26T19:04:57.245Z,99.90
2019-02-26T19:07:27.384Z,99.90
2019-02-26T19:09:58.021Z,90.40
2019-02-26T19:12:30.438Z,99.90
2019-02-26T19:20:00.927Z,99.90
2019-02-26T19:25:01.153Z,99.90
2019-02-26T19:27:31.370Z,91.30
2019-02-26T19:30:04.091Z,99.90
2019-02-26T19:32:33.644Z,99.90
2019-02-26T19:35:12.058Z,99.90
2019-02-26T19:37:35.896Z,99.90
2019-02-26T19:40:12.058Z,99.90
2019-02-26T19:42:42.653Z,99.90
2019-02-26T19:45:13.472Z,99.90
2019-02-26T19:47:43.430Z,99.90
2019-02-26T19:50:16.246Z,99.90
2019-02-26T19:52:46.154Z,99.90
2019-02-26T19:55:19.415Z,99.90
2019-02-26T19:57:50.201Z,99.90
2019-02-26T20:00:20.526Z,99.90
2019-02-26T20:02:50.727Z,99.90
2019-02-26T20:05:20.945Z,99.90
2019-02-26T20:07:53.047Z,99.90
2019-02-26T20:10:22.508Z,99.90
2019-02-26T20:12:54.028Z,99.90
2019-02-26T20:15:24.182Z,99.90
2019-02-26T20:17:54.301Z,99.90
2019-02-26T20:20:24.531Z,99.90
2019-02-26T20:22:54.646Z,93.00
2019-02-26T20:25:24.905Z,99.90
2019-02-26T20:27:58.094Z,99.90
2019-02-26T20:30:26.559Z,99.90
2019-02-26T20:32:56.864Z,99.90
2019-02-26T20:35:26.859Z,93.50
2019-02-26T20:37:58.586Z,99.90
2019-02-26T20:40:28.396Z,99.90
2019-02-26T20:43:01.858Z,99.90
2019-02-26T20:45:31.453Z,99.90
2019-02-26T20:48:03.903Z,99.90
2019-02-26T20:50:33.107Z,99.90
2019-02-26T20:53:05.615Z,99.90
2019-02-26T20:55:34.894Z,99.90
2019-02-26T20:58:04.994Z,94.10
2019-02-26T21:00:35.336Z,99.90
2019-02-26T21:03:07.959Z,99.90
2019-02-26T21:08:07.205Z,94.30
2019-02-26T21:10:38.460Z,99.90
2019-02-26T21:13:08.518Z,99.90
2019-02-26T21:15:38.656Z,99.10
2019-02-26T21:18:08.819Z,99.90
2019-02-26T21:23:09.836Z,99.90
2019-02-26T21:25:43.909Z,99.90
2019-02-26T21:28:11.454Z,99.90
2019-02-26T21:30:45.499Z,99.90
2019-02-26T21:33:12.991Z,99.90
2019-02-26T21:35:42.916Z,99.90
2019-02-26T21:38:13.188Z,99.90
2019-02-26T21:40:43.142Z,99.90
2019-02-26T21:43:13.068Z,99.90
2019-02-26T21:45:44.510Z,99.90
2019-02-26T21:48:14.637Z,99.90
2019-02-26T21:50:44.644Z,99.90
2019-02-26T21:53:15.970Z,99.90
2019-02-26T21:55:46.532Z,99.90
2019-02-26T21:58:16.619Z,99.90
2019-02-26T22:00:46.968Z,99.90
2019-02-26T22:03:18.537Z,99.90
2019-02-26T22:05:48.733Z,99.90
2019-02-26T22:08:18.861Z,99.90
2019-02-26T22:10:49.876Z,99.90
2019-02-26T22:13:19.900Z,99.90
2019-02-26T22:15:51.362Z,99.90
2019-02-26T22:18:21.481Z,99.90
2019-02-26T22:20:51.492Z,99.90
2019-02-26T22:23:21.511Z,99.90
2019-02-26T22:25:52.656Z,99.90
2019-02-26T22:28:23.206Z,99.90
2019-02-26T22:30:55.683Z,99.90
2019-02-26T22:33:24.841Z,99.90
2019-02-26T22:35:56.986Z,99.90
2019-02-26T22:40:56.343Z,99.90
2019-02-26T22:43:26.335Z,99.90
2019-02-26T22:45:58.683Z,99.90
2019-02-26T22:50:59.540Z,99.90
2019-02-26T22:53:28.736Z,99.90
2019-02-26T22:55:58.876Z,99.90
2019-02-26T22:58:28.976Z,99.90
2019-02-26T23:01:30.621Z,99.90
2019-02-26T23:03:57.695Z,99.90
2019-02-26T23:06:29.529Z,99.90
2019-02-26T23:08:59.577Z,99.90
2019-02-26T23:11:32.462Z,99.90
2019-02-26T23:14:02.676Z,99.90
2019-02-26T23:16:35.563Z,99.90
2019-02-26T23:19:05.973Z,99.90
2019-02-26T23:21:37.364Z,99.90
2019-02-26T23:24:07.999Z,99.90
2019-02-26T23:26:41.711Z,99.90
2019-02-26T23:29:11.686Z,98.00
2019-02-26T23:31:41.856Z,99.90
2019-02-26T23:34:13.655Z,97.90
2019-02-26T23:36:44.193Z,99.90
2019-02-26T23:39:14.614Z,98.10
2019-02-26T23:44:18.111Z,97.90
2019-02-26T23:46:47.516Z,99.90
2019-02-26T23:49:17.732Z,99.90
2019-02-26T23:51:47.759Z,99.90
2019-02-26T23:54:17.828Z,99.90
2019-02-26T23:56:49.826Z,99.90
2019-02-26T23:59:19.464Z,99.90
